Time;durP1;ratioP1;P1;durP2;ratioP2;P2;SDS_P1;SDS_P2;PMS_P1;PMS_P2;Temp;Humidity;BMP_temperature;BMP_pressure;BME280_temperature;BME280_humidity;BME280_pressure;Samples;Min_cycle;Max_cycle;Signal;HPM_P1;HPM_P2
2023/06/09 00:00:38;;;;;;;7.40;5.85;;;12.90;99.90;;;12.54;100.00;96902.31;5013827;28;20040;-37
2023/06/09 00:03:05;;;;;;;6.78;5.50;;;12.90;99.90;;;12.60;100.00;96917.88;5010886;28;20095;-37
2023/06/09 00:05:32;;;;;;;6.72;5.72;;;12.90;99.90;;;12.60;100.00;96918.72;5015455;28;20079;-37
2023/06/09 00:07:59;;;;;;;8.27;5.85;;;12.90;99.90;;;12.54;100.00;96912.88;5014816;28;20435;-37
2023/06/09 00:10:25;;;;;;;6.55;5.25;;;12.80;99.90;;;12.55;100.00;96925.19;5018279;28;20073;-37
2023/06/09 00:12:52;;;;;;;7.50;5.70;;;12.80;99.90;;;12.49;100.00;96923.72;5019005;28;20486;-37
2023/06/09 00:15:18;;;;;;;8.77;5.60;;;12.80;99.90;;;12.48;100.00;96919.34;5017857;28;20041;-37
2023/06/09 00:17:44;;;;;;;7.40;5.72;;;12.80;99.90;;;12.48;100.00;96922.00;5010044;28;20033;-37
2023/06/09 00:20:10;;;;;;;6.50;5.65;;;12.70;99.90;;;12.48;100.00;96915.84;5021812;28;20029;-37
2023/06/09 00:22:42;;;;;;;9.82;6.32;;;12.70;99.90;;;12.45;100.00;96923.94;5012520;28;20029;-38
2023/06/09 00:25:20;;;;;;;7.75;6.30;;;12.70;99.90;;;12.47;100.00;96914.13;5016813;28;20064;-37
2023/06/09 00:27:46;;;;;;;9.88;7.10;;;12.70;99.90;;;12.47;100.00;96915.03;5016848;28;20037;-37
2023/06/09 00:30:14;;;;;;;9.32;6.90;;;12.70;99.90;;;12.45;100.00;96918.66;5024457;28;20031;-37
2023/06/09 00:32:42;;;;;;;8.35;6.90;;;12.70;99.90;;;12.36;100.00;96909.41;5015790;28;20048;-37
2023/06/09 00:35:09;;;;;;;8.30;6.78;;;12.70;99.90;;;12.46;100.00;96921.22;5019547;28;20037;-37
2023/06/09 00:37:35;;;;;;;8.02;6.88;;;12.70;99.90;;;12.37;100.00;96911.13;5020348;28;20033;-37
2023/06/09 00:40:02;;;;;;;8.48;7.05;;;12.70;99.90;;;12.38;100.00;96915.47;5015081;28;20041;-37
2023/06/09 00:42:28;;;;;;;7.63;6.40;;;12.70;99.90;;;12.32;100.00;96903.41;5017953;28;20060;-37
2023/06/09 00:44:53;;;;;;;8.15;6.88;;;12.60;99.90;;;12.39;100.00;96917.19;5007940;28;20021;-37
2023/06/09 00:47:19;;;;;;;9.45;7.43;;;12.70;99.90;;;12.37;100.00;96911.97;5013233;28;20358;-37
2023/06/09 00:49:45;;;;;;;8.38;6.85;;;12.60;99.90;;;12.31;100.00;96903.50;5015058;28;20037;-37
2023/06/09 00:52:11;;;;;;;8.75;6.90;;;12.60;99.90;;;12.35;100.00;96905.91;5024672;28;20060;-37
2023/06/09 00:54:38;;;;;;;7.97;6.75;;;12.60;99.90;;;12.30;100.00;96888.59;5015984;28;20750;-37
2023/06/09 00:57:07;;;;;;;8.50;6.03;;;12.60;99.90;;;12.36;100.00;96904.13;5028764;28;20451;-37
2023/06/09 00:59:35;;;;;;;7.10;6.38;;;12.60;99.90;;;12.35;100.00;96905.91;5016582;28;20750;-38
2023/06/09 01:02:05;;;;;;;7.32;6.15;;;12.60;99.90;;;12.34;100.00;96906.84;5013833;28;20036;-37
2023/06/09 01:04:32;;;;;;;8.68;6.47;;;12.60;99.90;;;12.35;100.00;96905.91;5014640;28;20069;-37
2023/06/09 01:07:16;;;;;;;7.35;6.35;;;12.60;99.90;;;12.30;100.00;96902.66;5003921;28;20021;-37
2023/06/09 01:10:11;;;;;;;9.05;6.93;;;12.60;99.90;;;12.30;100.00;96913.22;5014018;28;20021;-37
2023/06/09 01:12:50;;;;;;;7.82;6.65;;;12.50;99.90;;;12.23;100.00;96902.09;5015480;28;20532;-37
2023/06/09 01:15:41;;;;;;;9.45;7.63;;;12.50;99.90;;;12.23;100.00;96906.53;5021195;28;20046;-37
2023/06/09 01:18:12;;;;;;;8.98;7.18;;;12.50;99.90;;;12.25;100.00;96909.97;5017227;28;20037;-37
2023/06/09 01:20:45;;;;;;;9.90;6.75;;;12.50;99.90;;;12.23;100.00;96904.75;5006962;28;20142;-37
2023/06/09 01:23:25;;;;;;;7.57;6.78;;;12.50;99.90;;;12.21;100.00;96914.56;5014008;28;20470;-37
2023/06/09 01:25:52;;;;;;;11.70;6.97;;;12.50;99.90;;;12.21;100.00;96916.34;5013682;28;20032;-37
2023/06/09 01:28:20;;;;;;;7.93;7.13;;;12.50;99.90;;;12.21;100.00;96921.63;5018478;28;20037;-37
2023/06/09 01:30:48;;;;;;;9.93;7.20;;;12.40;99.90;;;12.19;100.00;96905.84;5032156;28;20025;-38
2023/06/09 01:33:21;;;;;;;8.38;7.03;;;12.50;99.90;;;12.15;100.00;96909.59;5034314;28;20460;-37
2023/06/09 01:35:47;;;;;;;12.63;7.75;;;12.40;99.90;;;12.12;100.00;96906.25;5034453;28;20045;-37
2023/06/09 01:38:15;;;;;;;8.80;7.47;;;12.40;99.90;;;12.11;100.00;96904.53;5020534;28;20095;-37
2023/06/09 01:40:43;;;;;;;8.73;7.60;;;12.40;99.90;;;12.13;100.00;96905.31;5015721;28;20581;-37
2023/06/09 01:43:09;;;;;;;9.45;7.82;;;12.40;99.90;;;12.12;100.00;96909.75;5015045;28;20405;-37
2023/06/09 01:45:34;;;;;;;9.57;7.90;;;12.40;99.90;;;12.11;100.00;96899.25;5011829;28;20506;-37
2023/06/09 01:48:14;;;;;;;9.48;7.72;;;12.40;99.90;;;12.14;100.00;96907.88;5013017;28;20161;-37
2023/06/09 01:51:09;;;;;;;9.55;7.55;;;12.40;99.90;;;12.12;100.00;96901.81;5013157;28;20441;-37
2023/06/09 01:53:38;;;;;;;8.98;7.30;;;12.40;99.90;;;12.10;100.00;96898.41;5007864;28;20389;-37
2023/06/09 01:56:25;;;;;;;10.52;7.43;;;12.40;99.90;;;12.10;100.00;96898.41;5005574;28;21862;-37
2023/06/09 01:59:00;;;;;;;8.35;7.20;;;12.40;99.90;;;12.09;100.00;96895.81;5007478;28;20072;-38
2023/06/09 02:01:27;;;;;;;10.40;7.57;;;12.30;99.90;;;12.04;100.00;96888.13;5013693;28;20415;-37
2023/06/09 02:03:54;;;;;;;8.88;7.10;;;12.40;99.90;;;12.10;100.00;96892.25;5014903;28;20056;-38
2023/06/09 02:06:20;;;;;;;9.00;7.22;;;12.30;99.90;;;12.08;100.00;96891.47;5016930;28;20041;-37
2023/06/09 02:08:47;;;;;;;10.75;7.32;;;12.30;99.90;;;12.07;100.00;96892.41;5013067;28;20037;-37
2023/06/09 02:11:13;;;;;;;9.32;7.90;;;12.30;99.90;;;12.06;100.00;96896.84;5008278;28;20563;-38
2023/06/09 02:13:38;;;;;;;8.13;7.10;;;12.30;99.90;;;12.08;100.00;96896.75;5009911;28;20128;-38
2023/06/09 02:16:05;;;;;;;8.65;6.63;;;12.30;99.90;;;11.99;100.00;96885.72;5015900;28;20036;-37
2023/06/09 02:18:32;;;;;;;7.80;6.53;;;12.30;99.90;;;11.99;100.00;96893.66;5014897;28;20083;-38
2023/06/09 02:20:58;;;;;;;8.18;6.72;;;12.30;99.90;;;11.94;100.00;96893.03;5014806;28;20049;-37
2023/06/09 02:23:24;;;;;;;9.82;6.47;;;12.20;99.90;;;11.92;100.00;96891.41;5013898;28;20022;-37
2023/06/09 02:25:50;;;;;;;8.20;6.70;;;12.20;99.90;;;11.89;100.00;96895.00;5004302;28;20033;-38
2023/06/09 02:28:16;;;;;;;7.78;6.97;;;12.20;99.90;;;11.83;100.00;96888.25;4999655;28;20448;-38
2023/06/09 02:30:44;;;;;;;9.07;6.75;;;12.20;99.90;;;11.76;100.00;96878.09;5013427;28;20034;-37
2023/06/09 02:33:10;;;;;;;9.45;7.40;;;12.10;99.90;;;11.77;100.00;96885.94;5016937;28;20227;-37
2023/06/09 02:35:36;;;;;;;9.20;7.00;;;12.10;99.90;;;11.79;100.00;96888.47;5018400;28;20021;-38
2023/06/09 02:38:05;;;;;;;8.15;7.35;;;12.10;99.90;;;11.78;100.00;96882.34;5016244;28;20037;-37
2023/06/09 02:40:32;;;;;;;10.10;8.15;;;12.00;99.90;;;11.79;100.00;96888.47;5026745;28;20342;-37
2023/06/09 02:42:59;;;;;;;9.98;8.07;;;12.10;99.90;;;11.78;100.00;96890.25;5010131;28;20482;-38
2023/06/09 02:45:25;;;;;;;10.60;7.72;;;12.10;99.90;;;11.76;100.00;96894.78;5026763;28;20386;-37
2023/06/09 02:47:51;;;;;;;9.98;8.18;;;12.00;99.90;;;11.73;100.00;96896.72;5012788;28;20037;-38
2023/06/09 02:50:17;;;;;;;12.77;9.93;;;12.00;99.90;;;11.75;100.00;96894.84;5021159;28;20478;-39
2023/06/09 02:52:44;;;;;;;10.07;8.70;;;12.00;99.90;;;11.72;100.00;96892.34;5017467;28;20314;-37
2023/06/09 02:55:11;;;;;;;10.13;8.57;;;12.00;99.90;;;11.69;100.00;96888.09;5018878;28;20393;-38
2023/06/09 02:57:37;;;;;;;10.07;8.55;;;12.00;99.90;;;11.72;100.00;96898.50;5020879;28;20036;-37
2023/06/09 03:00:08;;;;;;;10.55;8.25;;;12.00;99.90;;;11.72;100.00;96898.50;5016050;28;20087;-38
2023/06/09 03:02:34;;;;;;;10.45;8.18;;;12.00;99.90;;;11.73;100.00;96896.72;5022045;28;20385;-37
2023/06/09 03:05:00;;;;;;;10.85;9.00;;;12.00;99.90;;;11.68;100.00;96896.09;5011596;28;20065;-38
2023/06/09 03:07:26;;;;;;;8.57;7.65;;;12.00;99.90;;;11.68;100.00;96894.28;5002658;28;21398;-37
2023/06/09 03:09:51;;;;;;;9.73;7.85;;;12.00;99.90;;;11.69;100.00;96901.28;5010203;28;20062;-39
2023/06/09 03:12:17;;;;;;;14.05;8.50;;;12.00;99.90;;;11.68;100.00;96894.28;5010262;28;20037;-38
2023/06/09 03:14:43;;;;;;;8.98;8.07;;;12.00;99.90;;;11.67;100.00;96891.75;5010262;28;20528;-37
2023/06/09 03:17:08;;;;;;;9.05;7.55;;;11.90;99.90;;;11.68;100.00;96894.28;5009236;28;20414;-39
2023/06/09 03:19:34;;;;;;;8.77;7.88;;;12.00;99.90;;;11.70;100.00;96899.50;5014565;28;20396;-38
2023/06/09 03:22:03;;;;;;;9.00;7.90;;;12.00;99.90;;;11.68;100.00;96896.09;5014093;28;20037;-39
2023/06/09 03:24:29;;;;;;;9.98;7.88;;;11.90;99.90;;;11.67;100.00;96891.75;5017326;28;20017;-39
2023/06/09 03:26:55;;;;;;;9.32;8.02;;;12.00;99.90;;;11.66;100.00;96901.44;5005522;28;20061;-37
2023/06/09 03:29:21;;;;;;;8.75;7.85;;;11.90;99.90;;;11.65;100.00;96905.03;5012767;28;20035;-38
2023/06/09 03:31:48;;;;;;;9.95;7.93;;;11.90;99.90;;;11.64;100.00;96912.06;5011906;28;20121;-38
2023/06/09 03:34:13;;;;;;;14.85;7.50;;;11.90;99.90;;;11.64;100.00;96905.94;5012089;28;20025;-38
2023/06/09 03:36:39;;;;;;;8.93;7.32;;;11.90;99.90;;;11.65;100.00;96903.22;5017274;28;20514;-39
2023/06/09 03:39:07;;;;;;;9.27;7.78;;;11.90;99.90;;;11.63;100.00;96894.53;5005832;28;20037;-38
2023/06/09 03:41:33;;;;;;;8.48;7.45;;;11.90;99.90;;;11.60;100.00;96889.41;5005943;28;20044;-37
2023/06/09 03:43:59;;;;;;;10.32;7.50;;;11.90;99.90;;;11.64;100.00;96896.22;5005346;28;20038;-37
2023/06/09 03:46:25;;;;;;;9.70;7.63;;;11.90;99.90;;;11.67;100.00;96904.97;5018724;28;20387;-39
2023/06/09 03:48:52;;;;;;;9.82;7.32;;;11.90;99.90;;;11.65;100.00;96905.88;5016751;28;20025;-39
2023/06/09 03:51:19;;;;;;;11.00;8.60;;;12.00;99.90;;;11.69;100.00;96903.94;5021651;28;20031;-38
2023/06/09 03:53:45;;;;;;;11.48;8.00;;;12.00;99.90;;;11.72;100.00;96897.63;5019417;28;20474;-38
2023/06/09 03:56:11;;;;;;;10.48;8.18;;;12.00;99.90;;;11.75;100.00;96905.41;5012845;28;20033;-38
2023/06/09 03:58:37;;;;;;;9.40;7.57;;;12.00;99.90;;;11.77;100.00;96912.34;5019315;28;20041;-37
2023/06/09 04:01:04;;;;;;;10.82;7.88;;;12.10;99.90;;;11.71;100.00;96895.94;5015060;28;20068;-37
2023/06/09 04:03:30;;;;;;;9.38;8.38;;;12.10;99.90;;;11.80;100.00;96898.97;5022934;28;20033;-37
2023/06/09 04:05:55;;;;;;;9.73;8.13;;;12.20;99.90;;;11.93;100.00;96911.59;5017530;28;20117;-38
2023/06/09 04:08:21;;;;;;;10.93;8.50;;;12.20;99.90;;;11.89;100.00;96892.38;5015940;28;20100;-37
2023/06/09 04:10:47;;;;;;;13.45;9.40;;;12.30;99.90;;;12.07;100.00;96913.56;5013544;28;20032;-39
2023/06/09 04:13:13;;;;;;;9.70;8.57;;;12.30;99.90;;;12.12;100.00;96909.75;5013332;28;20485;-39
2023/06/09 04:15:39;;;;;;;10.90;8.68;;;12.40;99.90;;;12.21;100.00;96911.91;5016495;28;20032;-38
2023/06/09 04:18:05;;;;;;;11.25;8.65;;;12.50;99.90;;;12.28;100.00;96912.47;5010622;28;20025;-36
2023/06/09 04:20:30;;;;;;;11.05;9.27;;;12.50;99.90;;;12.34;100.00;96906.84;5018924;28;20357;-36
2023/06/09 04:22:56;;;;;;;10.23;9.13;;;12.60;99.90;;;12.41;100.00;96913.53;5018521;28;20025;-37
2023/06/09 04:25:25;;;;;;;12.15;9.32;;;12.70;99.90;;;12.47;100.00;96912.38;5018750;28;20165;-37
2023/06/09 04:28:02;;;;;;;14.18;9.27;;;12.70;99.90;;;12.56;100.00;96911.88;5011540;28;20044;-38
2023/06/09 04:30:29;;;;;;;13.63;9.65;;;12.80;99.90;;;12.62;100.00;96907.22;5013192;28;20030;-38
2023/06/09 04:33:01;;;;;;;9.25;8.18;;;12.90;99.90;;;12.66;100.00;96912.22;5010467;28;20045;-39
2023/06/09 04:35:27;;;;;;;11.60;9.05;;;12.90;99.90;;;12.72;100.00;96896.06;5015354;28;20319;-38
2023/06/09 04:37:53;;;;;;;9.43;8.00;;;13.00;99.90;;;12.78;100.00;96906.28;5007917;28;20122;-38
2023/06/09 04:40:23;;;;;;;9.82;8.25;;;13.00;99.90;;;12.83;100.00;96890.19;5014308;28;20037;-37
2023/06/09 04:42:56;;;;;;;11.25;8.50;;;13.10;99.90;;;12.95;100.00;96891.28;5014058;28;20025;-38
2023/06/09 04:45:33;;;;;;;9.65;8.00;;;13.20;99.90;;;13.03;100.00;96899.69;5010290;28;20041;-38
2023/06/09 04:48:02;;;;;;;11.50;8.52;;;13.30;99.90;;;13.12;100.00;96903.63;5011212;28;20052;-37
2023/06/09 04:50:35;;;;;;;10.60;8.13;;;13.40;99.90;;;13.25;100.00;96914.38;5022454;28;20473;-38
2023/06/09 04:53:07;;;;;;;9.13;8.00;;;13.50;99.90;;;13.26;100.00;96900.19;5003641;28;20541;-37
2023/06/09 04:55:33;;;;;;;8.90;8.00;;;13.60;99.90;;;13.43;100.00;96913.38;5018623;28;20139;-38
2023/06/09 04:57:59;;;;;;;8.80;7.45;;;13.70;99.90;;;13.47;100.00;96912.25;5010990;28;20040;-38
2023/06/09 05:00:29;;;;;;;9.65;8.18;;;13.80;99.90;;;13.55;100.00;96912.69;5014352;28;20029;-38
2023/06/09 05:02:57;;;;;;;9.75;8.05;;;13.80;99.90;;;13.65;100.00;96920.97;5011905;28;20541;-38
2023/06/09 05:05:23;;;;;;;9.55;8.55;;;13.90;99.90;;;13.77;100.00;96921.22;5015122;28;20441;-37
2023/06/09 05:07:49;;;;;;;9.70;8.70;;;14.00;99.90;;;13.84;100.00;96927.88;5010978;28;20103;-37
2023/06/09 05:10:15;;;;;;;10.40;8.77;;;14.10;99.90;;;13.93;100.00;96927.34;5014482;28;20041;-38
2023/06/09 05:12:41;;;;;;;12.73;10.02;;;14.20;99.90;;;14.00;100.00;96923.38;5014740;28;20061;-37
2023/06/09 05:15:08;;;;;;;11.65;8.25;;;14.30;99.90;;;14.08;100.00;96928.25;5010795;28;20044;-38
2023/06/09 05:17:36;;;;;;;11.57;8.60;;;14.30;99.90;;;14.19;100.00;96936.41;5015130;28;20040;-37
2023/06/09 05:20:05;;;;;;;11.48;9.98;;;14.40;99.90;;;14.18;100.00;96921.47;5013940;28;20033;-38
2023/06/09 05:22:32;;;;;;;10.48;8.23;;;14.50;99.90;;;14.45;100.00;96926.91;5019562;28;20399;-38
2023/06/09 05:24:58;;;;;;;9.93;7.25;;;14.70;99.90;;;14.70;100.00;96922.81;5013439;28;20043;-38
2023/06/09 05:27:24;;;;;;;10.80;9.00;;;14.80;99.90;;;15.21;100.00;96928.47;5009209;28;20033;-37
2023/06/09 05:29:49;;;;;;;9.07;7.35;;;15.10;99.90;;;15.90;100.00;96935.63;5010728;28;20064;-37
2023/06/09 05:32:15;;;;;;;8.98;7.50;;;15.50;99.90;;;16.30;100.00;96938.31;5013941;28;20029;-38
2023/06/09 05:34:42;;;;;;;9.45;7.82;;;15.80;99.90;;;16.41;100.00;96941.09;5008178;28;20601;-39
2023/06/09 05:37:07;;;;;;;8.23;6.65;;;16.00;99.90;;;16.37;100.00;96937.78;5016291;28;20609;-38
2023/06/09 05:39:33;;;;;;;11.65;7.25;;;16.10;99.90;;;16.32;100.00;96939.06;5020711;28;20033;-38
2023/06/09 05:42:00;;;;;;;8.98;7.30;;;16.20;99.90;;;16.28;100.00;96941.06;5010073;28;20190;-40
2023/06/09 05:44:26;;;;;;;8.02;6.30;;;16.30;99.90;;;16.26;100.00;96939.47;5012023;28;20036;-39
2023/06/09 05:46:52;;;;;;;7.43;6.38;;;16.30;99.90;;;16.28;100.00;96945.56;5015898;28;20091;-40
2023/06/09 05:49:17;;;;;;;10.30;6.95;;;16.40;99.90;;;16.32;100.00;96955.03;5023357;28;20041;-39
2023/06/09 05:51:44;;;;;;;6.80;6.03;;;16.40;99.90;;;16.36;100.00;96945.88;5015982;28;20041;-39
2023/06/09 05:54:10;;;;;;;7.40;6.40;;;16.60;99.90;;;16.47;100.00;96943.31;5017802;28;20752;-40
2023/06/09 05:56:37;;;;;;;6.72;6.03;;;16.60;99.90;;;16.58;100.00;96953.25;5015281;28;20515;-39
2023/06/09 05:59:03;;;;;;;7.00;5.70;;;16.80;99.90;;;16.67;100.00;96951.75;5014525;28;20047;-40
2023/06/09 06:01:32;;;;;;;8.60;5.95;;;16.80;99.90;;;16.85;100.00;96960.31;5011151;28;20025;-40
2023/06/09 06:03:59;;;;;;;7.85;6.50;;;17.00;99.90;;;16.98;100.00;96963.84;5009970;28;20028;-40
2023/06/09 06:06:24;;;;;;;9.07;6.45;;;17.10;99.90;;;17.09;100.00;96952.44;5017968;28;20043;-37
2023/06/09 06:08:50;;;;;;;7.72;6.28;;;17.20;99.90;;;17.23;100.00;96962.97;5016061;28;20052;-38
2023/06/09 06:11:16;;;;;;;8.55;6.05;;;17.30;99.90;;;17.34;100.00;96959.56;5013423;28;20509;-38
2023/06/09 06:13:42;;;;;;;7.00;6.30;;;17.40;99.90;;;17.45;100.00;96953.47;5012242;28;20033;-38
2023/06/09 06:16:07;;;;;;;7.72;5.70;;;17.60;99.90;;;17.61;100.00;96964.72;5018630;28;20041;-38
2023/06/09 06:18:33;;;;;;;7.13;5.38;;;17.70;99.90;;;17.77;100.00;96968.94;5016478;28;20037;-38
2023/06/09 06:21:00;;;;;;;10.38;6.55;;;17.80;99.90;;;17.82;100.00;96956.09;5009880;28;20048;-38
2023/06/09 06:23:25;;;;;;;7.93;6.63;;;17.90;99.90;;;18.00;100.00;96973.47;5014252;28;20044;-38
2023/06/09 06:25:52;;;;;;;11.45;7.07;;;18.00;99.90;;;18.05;100.00;96951.78;5015735;28;20068;-39
2023/06/09 06:28:18;;;;;;;9.50;6.35;;;18.10;99.90;;;18.24;100.00;96972.63;5015538;28;20034;-38
2023/06/09 06:30:44;;;;;;;6.70;5.43;;;18.30;99.90;;;18.40;100.00;96975.00;5014203;28;20061;-38
2023/06/09 06:33:10;;;;;;;5.47;4.85;;;18.40;99.90;;;18.52;100.00;96966.06;5017894;28;20033;-38
2023/06/09 06:35:36;;;;;;;8.32;5.93;;;18.50;99.90;;;18.61;100.00;96968.03;5020316;28;20032;-38
2023/06/09 06:38:02;;;;;;;8.05;5.13;;;18.60;99.90;;;18.75;100.00;96974.94;5015984;28;20411;-39
2023/06/09 06:40:28;;;;;;;9.45;5.80;;;18.70;99.90;;;18.86;100.00;96972.34;5019128;28;20070;-38
2023/06/09 06:42:54;;;;;;;10.60;5.63;;;18.80;99.90;;;18.98;100.00;96972.38;5004495;28;20025;-38
2023/06/09 06:45:20;;;;;;;7.03;5.60;;;19.00;99.90;;;19.11;100.00;96965.06;5016784;28;20065;-38
2023/06/09 06:47:46;;;;;;;7.68;5.72;;;19.10;99.90;;;19.26;100.00;96963.88;5020224;28;20037;-38
2023/06/09 06:50:12;;;;;;;6.20;5.35;;;19.20;99.90;;;19.40;100.00;96961.97;5007507;28;20071;-38
2023/06/09 06:52:38;;;;;;;5.65;5.13;;;19.30;99.90;;;19.48;100.00;96964.84;5014910;28;20048;-38
2023/06/09 06:55:07;;;;;;;6.85;5.32;;;19.40;99.90;;;19.53;99.86;96962.66;5012718;28;20037;-38
2023/06/09 06:57:36;;;;;;;5.80;4.85;;;19.50;99.90;;;19.63;100.00;96962.75;5013021;28;20154;-38
2023/06/09 07:00:16;;;;;;;9.02;5.50;;;19.60;99.90;;;19.76;99.63;96970.69;5004529;28;20041;-38
2023/06/09 07:02:46;;;;;;;9.02;5.05;;;19.70;99.90;;;19.78;96.66;96964.25;5018467;28;20030;-38
2023/06/09 07:05:12;;;;;;;7.97;5.78;;;19.80;99.90;;;19.89;96.50;96979.41;5015992;28;20028;-38
2023/06/09 07:07:38;;;;;;;6.57;5.57;;;19.90;99.90;;;19.97;96.85;96982.34;5018872;28;20486;-38
2023/06/09 07:10:07;;;;;;;7.55;5.88;;;19.90;99.90;;;20.08;97.98;96984.13;5010698;28;20029;-38
2023/06/09 07:12:33;;;;;;;7.40;5.65;;;20.00;99.90;;;20.06;93.82;96980.69;5018852;28;20406;-38
2023/06/09 07:14:59;;;;;;;6.43;4.90;;;20.10;99.90;;;20.12;89.33;96995.44;5006758;28;20140;-38
2023/06/09 07:17:24;;;;;;;12.23;4.75;;;20.10;99.90;;;20.15;89.46;96985.31;5010285;28;20033;-38
2023/06/09 07:19:50;;;;;;;7.00;4.55;;;20.10;99.90;;;20.23;88.96;96984.69;5003364;28;20213;-38
2023/06/09 07:22:16;;;;;;;6.30;4.82;;;20.20;99.90;;;20.37;89.45;96994.25;5008897;28;20040;-38
2023/06/09 07:24:42;;;;;;;7.78;5.05;;;20.30;99.90;;;20.50;89.28;96997.59;5016429;28;20057;-39
2023/06/09 07:27:08;;;;;;;6.63;4.35;;;20.50;99.90;;;20.64;90.97;96996.47;5011366;28;20169;-38
2023/06/09 07:29:35;;;;;;;5.85;4.60;;;20.50;99.90;;;20.68;83.47;96983.69;5015089;28;20037;-38
2023/06/09 07:32:02;;;;;;;6.32;4.50;;;20.60;99.90;;;20.81;84.40;96995.03;5011040;28;20034;-38
2023/06/09 07:34:29;;;;;;;4.75;3.92;;;20.70;99.90;;;20.90;84.53;96996.09;5018912;28;20041;-37
2023/06/09 07:36:55;;;;;;;5.90;4.72;;;20.90;99.90;;;20.95;76.90;96996.53;5019425;28;20452;-36
2023/06/09 07:39:21;;;;;;;5.65;4.10;;;20.90;99.90;;;21.05;80.13;96996.59;5021658;28;20036;-36
2023/06/09 07:41:47;;;;;;;7.40;4.40;;;21.00;99.90;;;21.00;78.71;96982.72;5007607;28;20032;-38
2023/06/09 07:44:12;;;;;;;4.78;3.92;;;21.10;99.90;;;21.17;80.92;97001.78;5016656;28;20116;-37
2023/06/09 07:46:38;;;;;;;4.00;3.60;;;21.20;99.90;;;21.29;79.58;97007.91;5018764;28;20128;-37
2023/06/09 07:49:04;;;;;;;3.53;3.22;;;21.20;99.90;;;21.39;73.10;97005.28;5023162;28;20460;-37
2023/06/09 07:51:29;;;;;;;5.88;4.13;;;21.40;99.90;;;21.51;74.01;97003.38;5012614;28;20038;-37
2023/06/09 07:53:55;;;;;;;4.43;3.90;;;21.50;99.90;;;21.54;74.81;96990.53;5021864;28;20378;-37
2023/06/09 07:56:21;;;;;;;9.18;4.40;;;21.60;99.90;;;21.68;76.83;96994.69;5012946;28;20486;-39
2023/06/09 07:58:49;;;;;;;5.05;4.18;;;21.60;99.90;;;21.78;73.67;96991.19;5011875;28;20390;-37
2023/06/09 08:01:15;;;;;;;5.55;4.43;;;21.80;99.90;;;21.75;70.19;96995.00;5015879;28;20103;-40
2023/06/09 08:03:41;;;;;;;5.32;4.20;;;21.80;99.90;;;21.78;70.12;96993.88;5011624;28;20121;-38
2023/06/09 08:06:08;;;;;;;6.68;4.60;;;21.70;99.90;;;21.81;70.62;96994.44;5022579;28;20097;-39
2023/06/09 08:08:34;;;;;;;5.03;3.80;;;21.80;99.90;;;21.86;73.52;96989.50;5019330;28;20437;-37
2023/06/09 08:11:00;;;;;;;5.10;4.40;;;21.80;99.90;;;21.91;70.57;96989.09;5016498;28;20033;-38
2023/06/09 08:13:27;;;;;;;5.25;4.00;;;21.80;99.90;;;21.96;72.99;96988.69;5011794;28;20109;-38
2023/06/09 08:15:53;;;;;;;4.25;3.80;;;21.90;99.90;;;22.00;79.41;96990.09;5006539;28;20112;-38
2023/06/09 08:18:19;;;;;;;5.35;3.63;;;21.90;99.90;;;22.09;71.26;96983.91;5010288;28;20033;-38
2023/06/09 08:20:45;;;;;;;4.47;4.05;;;22.10;99.90;;;22.19;74.30;96987.44;5008633;28;20038;-38
2023/06/09 08:23:11;;;;;;;6.85;4.15;;;22.10;99.90;;;22.24;76.21;96985.19;5016936;28;20026;-39
2023/06/09 08:25:37;;;;;;;7.15;4.30;;;22.20;99.90;;;22.35;71.85;96988.78;5009618;28;20749;-38
2023/06/09 08:28:03;;;;;;;6.30;4.45;;;22.30;99.90;;;22.39;71.16;96982.13;5011457;28;20068;-41
2023/06/09 08:30:29;;;;;;;4.05;3.63;;;22.30;99.90;;;22.45;72.46;96968.13;5011544;28;20069;-39
2023/06/09 08:32:54;;;;;;;6.80;4.72;;;22.40;99.90;;;22.57;69.25;96980.44;5011769;28;20030;-39
2023/06/09 08:35:23;;;;;;;4.68;3.70;;;22.50;99.90;;;22.60;65.35;96982.84;5013829;28;20036;-38
2023/06/09 08:37:50;;;;;;;5.97;4.10;;;22.60;99.90;;;22.56;67.71;96973.38;5011041;28;20102;-39
2023/06/09 08:40:16;;;;;;;4.72;3.65;;;22.50;99.90;;;22.60;65.20;96974.78;4993259;28;20041;-40
2023/06/09 08:42:46;;;;;;;4.63;3.78;;;22.50;99.90;;;22.67;69.25;96970.53;5004662;28;20147;-38
2023/06/09 08:45:12;;;;;;;4.75;3.50;;;22.60;99.90;;;22.74;71.21;96969.94;5009658;28;20052;-40
2023/06/09 08:47:39;;;;;;;3.90;3.40;;;22.70;99.90;;;22.80;63.61;96966.69;5020855;28;20486;-39
2023/06/09 08:50:07;;;;;;;5.95;3.60;;;22.80;99.90;;;22.78;62.77;96953.41;5006434;28;20029;-39
2023/06/09 08:52:33;;;;;;;4.13;3.60;;;22.80;99.90;;;22.88;58.17;96962.31;5024113;28;20033;-41
2023/06/09 08:54:59;;;;;;;4.68;3.47;;;22.90;99.90;;;22.92;57.75;96954.81;5012160;28;20047;-38
2023/06/09 08:57:25;;;;;;;3.40;2.90;;;22.90;99.90;;;23.08;60.53;96954.22;5007834;28;20082;-38
2023/06/09 08:59:53;;;;;;;3.65;3.33;;;23.00;99.90;;;23.17;59.83;96957.91;5023836;28;20038;-39
2023/06/09 09:02:18;;;;;;;4.80;3.38;;;23.10;99.90;;;23.25;59.86;96953.44;5007319;28;20026;-38
2023/06/09 09:04:45;;;;;;;6.78;3.28;;;23.20;99.90;;;23.31;57.90;96959.25;5009261;28;20034;-39
2023/06/09 09:07:12;;;;;;;6.65;3.53;;;23.30;99.90;;;23.31;55.84;96960.09;5007169;28;20199;-40
2023/06/09 09:09:39;;;;;;;3.67;3.22;;;23.30;99.90;;;23.30;56.31;96952.19;5007631;28;20049;-39
2023/06/09 09:12:09;;;;;;;3.53;3.20;;;23.30;99.90;;;23.35;59.36;96960.66;5008750;28;20057;-38
2023/06/09 09:14:42;;;;;;;4.22;3.28;;;23.30;99.90;;;23.36;59.54;96948.88;5016364;28;20485;-39
2023/06/09 09:17:10;;;;;;;3.67;3.25;;;23.40;99.90;;;23.57;59.63;96964.81;5012432;28;20045;-40
2023/06/09 09:19:37;;;;;;;4.13;3.58;;;23.50;99.90;;;23.61;56.11;96966.19;5016876;28;20041;-38
2023/06/09 09:22:09;;;;;;;3.75;3.20;;;23.60;99.90;;;23.64;59.83;96960.53;5013237;28;20033;-39
2023/06/09 09:24:35;;;;;;;4.65;3.40;;;23.60;99.90;;;23.65;55.86;96967.59;5013972;28;20028;-38
2023/06/09 09:27:04;;;;;;;4.97;3.63;;;23.60;99.90;;;23.56;56.94;96961.28;5010032;28;20037;-38
2023/06/09 09:29:39;;;;;;;4.03;3.63;;;23.50;99.90;;;23.56;55.22;96961.28;5018001;28;20417;-38
2023/06/09 09:32:05;;;;;;;3.95;3.50;;;23.60;99.90;;;23.59;56.93;96957.44;5008292;28;20087;-38
2023/06/09 09:34:32;;;;;;;4.30;3.60;;;23.60;99.90;;;23.63;59.94;96954.31;5015448;28;20383;-38
2023/06/09 09:36:58;;;;;;;5.32;3.65;;;23.60;99.90;;;23.68;56.68;96959.22;5015662;28;20033;-39
2023/06/09 09:39:24;;;;;;;4.43;3.00;;;23.60;99.90;;;23.67;58.83;96945.91;5014466;28;20048;-38
2023/06/09 09:42:07;;;;;;;3.95;3.38;;;23.70;99.90;;;23.81;57.01;96953.50;5027993;28;20406;-40
2023/06/09 09:44:46;;;;;;;3.40;3.10;;;23.70;99.90;;;23.88;56.98;96945.69;5018633;28;20564;-40
2023/06/09 09:47:15;;;;;;;4.63;3.40;;;23.80;99.90;;;23.98;58.04;96941.09;5011535;28;20098;-38
2023/06/09 09:49:58;;;;;;;4.00;3.40;;;23.90;99.90;;;23.98;59.17;96935.72;5011789;28;20061;-39
2023/06/09 09:52:30;;;;;;;4.78;3.58;;;24.00;99.80;;;24.01;56.56;96938.06;5015048;28;20044;-37
2023/06/09 09:54:59;;;;;;;4.18;3.15;;;24.00;99.60;;;24.14;57.45;96937.72;5016816;28;20037;-38
2023/06/09 09:57:30;;;;;;;10.55;3.42;;;24.10;99.60;;;24.23;54.48;96933.25;5019914;28;20038;-39
2023/06/09 09:59:56;;;;;;;5.55;3.70;;;24.20;99.30;;;24.29;53.56;96930.78;5011483;28;20033;-38
2023/06/09 10:02:26;;;;;;;3.53;3.10;;;24.30;98.50;;;24.38;56.78;96937.09;5024106;28;20035;-39
2023/06/09 10:04:56;;;;;;;5.63;3.67;;;24.30;98.70;;;24.42;51.00;96932.25;5006206;28;20036;-39
2023/06/09 10:07:26;;;;;;;5.45;3.67;;;24.40;98.10;;;24.32;50.10;96930.50;5011350;28;20521;-40
2023/06/09 10:09:53;;;;;;;4.55;3.30;;;24.30;96.70;;;24.26;50.75;96920.31;5022271;28;20062;-41
2023/06/09 10:12:20;;;;;;;3.90;3.00;;;24.30;97.00;;;24.39;52.92;96928.03;4996884;28;20111;-39
2023/06/09 10:14:48;;;;;;;3.72;3.22;;;24.30;97.60;;;24.44;51.68;96924.84;5010266;28;20034;-41